sensor_id;sensor_type;location;lat;lon;timestamp;pressure;altitude;pressure_sealevel;temperature;humidity
59407;BME280;45208;32.616;-115.472;2022-10-04T19:14:31;101109.16;;;59.39;4.10
59407;BME280;45208;32.616;-115.472;2022-10-04T19:26:30;101106.81;;;68.00;0.25
59407;BME280;45208;32.616;-115.472;2022-10-04T19:29:11;101104.28;;;67.79;0.00
59407;BME280;45208;32.616;-115.472;2022-10-04T19:34:19;101091.97;;;70.81;0.00
59407;BME280;45208;32.616;-115.472;2022-10-04T19:39:23;101078.91;;;73.42;0.00
59407;BME280;45208;32.616;-115.472;2022-10-04T19:49:32;101040.66;;;74.43;0.00
59407;BME280;45208;32.616;-115.472;2022-10-04T19:52:47;101032.47;;;74.07;0.00
59407;BME280;45208;32.616;-115.472;2022-10-04T19:54:54;101030.09;;;72.49;0.00
59407;BME280;45208;32.616;-115.472;2022-10-04T19:57:28;101025.47;;;74.73;0.00
59407;BME280;45208;32.616;-115.472;2022-10-04T19:59:56;101029.63;;;74.97;0.00
59407;BME280;45208;32.616;-115.472;2022-10-04T20:02:22;101036.44;;;74.18;0.00
59407;BME280;45208;32.616;-115.472;2022-10-04T20:04:48;101035.63;;;73.81;0.00
59407;BME280;45208;32.616;-115.472;2022-10-04T20:07:19;101024.63;;;75.12;0.00
59407;BME280;45208;32.616;-115.472;2022-10-04T20:12:28;101004.31;;;74.64;0.00
59407;BME280;45208;32.616;-115.472;2022-10-04T20:17:41;101003.84;;;74.80;0.00
59407;BME280;45208;32.616;-115.472;2022-10-04T20:20:08;101004.06;;;75.97;0.00
59407;BME280;45208;32.616;-115.472;2022-10-04T20:22:52;100989.88;;;76.08;0.00
59407;BME280;45208;32.616;-115.472;2022-10-04T20:28:05;100981.53;;;71.25;0.00
59407;BME280;45208;32.616;-115.472;2022-10-04T20:30:48;100987.28;;;74.35;0.00
59407;BME280;45208;32.616;-115.472;2022-10-04T20:36:04;100966.34;;;71.65;0.00
59407;BME280;45208;32.616;-115.472;2022-10-04T20:38:51;100964.19;;;68.66;0.00
59407;BME280;45208;32.616;-115.472;2022-10-04T20:42:01;100962.69;;;72.44;0.00
59407;BME280;45208;32.616;-115.472;2022-10-04T20:44:41;100958.50;;;75.61;0.00
59407;BME280;45208;32.616;-115.472;2022-10-04T20:47:22;100945.69;;;67.86;0.00
59407;BME280;45208;32.616;-115.472;2022-10-04T20:49:53;100938.28;;;68.86;0.00
59407;BME280;45208;32.616;-115.472;2022-10-04T20:52:26;100943.88;;;74.84;0.00
59407;BME280;45208;32.616;-115.472;2022-10-04T20:54:53;100942.13;;;77.72;0.00
59407;BME280;45208;32.616;-115.472;2022-10-04T20:57:21;100942.06;;;73.85;0.00
59407;BME280;45208;32.616;-115.472;2022-10-04T20:59:49;100919.31;;;71.41;0.00
59407;BME280;45208;32.616;-115.472;2022-10-04T21:02:16;100924.22;;;75.84;0.00
59407;BME280;45208;32.616;-115.472;2022-10-04T21:04:43;100916.81;;;70.64;0.00
59407;BME280;45208;32.616;-115.472;2022-10-04T21:07:21;100916.22;;;67.75;0.00
59407;BME280;45208;32.616;-115.472;2022-10-04T21:09:48;100912.28;;;71.55;0.00
59407;BME280;45208;32.616;-115.472;2022-10-04T21:12:26;100905.16;;;69.31;0.00
59407;BME280;45208;32.616;-115.472;2022-10-04T21:18:05;100902.25;;;76.42;0.00
59407;BME280;45208;32.616;-115.472;2022-10-04T21:20:48;100897.56;;;76.25;0.00
59407;BME280;45208;32.616;-115.472;2022-10-04T21:23:24;100893.44;;;73.52;0.00
59407;BME280;45208;32.616;-115.472;2022-10-04T21:28:40;100885.41;;;76.10;0.00
59407;BME280;45208;32.616;-115.472;2022-10-04T21:31:07;100881.75;;;75.47;0.00
59407;BME280;45208;32.616;-115.472;2022-10-04T21:33:35;100870.88;;;71.19;0.00
59407;BME280;45208;32.616;-115.472;2022-10-04T21:36:04;100866.47;;;75.96;0.00
59407;BME280;45208;32.616;-115.472;2022-10-04T21:38:34;100879.50;;;76.19;0.00
59407;BME280;45208;32.616;-115.472;2022-10-04T21:41:03;100864.59;;;73.69;0.00
59407;BME280;45208;32.616;-115.472;2022-10-04T21:43:31;100868.19;;;77.33;0.00
59407;BME280;45208;32.616;-115.472;2022-10-04T21:46:00;100858.88;;;75.89;0.00
59407;BME280;45208;32.616;-115.472;2022-10-04T21:48:26;100866.59;;;77.15;0.00
59407;BME280;45208;32.616;-115.472;2022-10-04T21:50:53;100862.34;;;75.00;0.00
59407;BME280;45208;32.616;-115.472;2022-10-04T21:53:21;100845.97;;;74.59;0.00
59407;BME280;45208;32.616;-115.472;2022-10-04T21:55:50;100838.13;;;69.10;0.00
59407;BME280;45208;32.616;-115.472;2022-10-04T21:58:18;100843.59;;;71.55;0.00
59407;BME280;45208;32.616;-115.472;2022-10-04T22:00:45;100845.22;;;74.58;0.00
59407;BME280;45208;32.616;-115.472;2022-10-04T22:03:12;100848.06;;;74.52;0.00
59407;BME280;45208;32.616;-115.472;2022-10-04T22:05:38;100837.50;;;72.92;0.00
59407;BME280;45208;32.616;-115.472;2022-10-04T22:08:05;100838.38;;;75.67;0.00
59407;BME280;45208;32.616;-115.472;2022-10-04T22:10:31;100835.16;;;72.29;0.00
59407;BME280;45208;32.616;-115.472;2022-10-04T22:12:58;100836.81;;;76.42;0.00
59407;BME280;45208;32.616;-115.472;2022-10-04T22:15:25;100835.91;;;76.20;0.00
59407;BME280;45208;32.616;-115.472;2022-10-04T22:17:52;100831.97;;;77.12;0.00
59407;BME280;45208;32.616;-115.472;2022-10-04T22:20:18;100830.38;;;76.95;0.00
59407;BME280;45208;32.616;-115.472;2022-10-04T22:22:45;100819.16;;;67.00;0.00
59407;BME280;45208;32.616;-115.472;2022-10-04T22:25:18;100814.03;;;68.31;0.00
59407;BME280;45208;32.616;-115.472;2022-10-04T22:27:45;100815.28;;;70.60;0.00
59407;BME280;45208;32.616;-115.472;2022-10-04T22:30:19;100815.34;;;70.18;0.00
59407;BME280;45208;32.616;-115.472;2022-10-04T22:32:46;100816.88;;;66.99;0.00
59407;BME280;45208;32.616;-115.472;2022-10-04T22:35:14;100815.53;;;64.94;1.00
59407;BME280;45208;32.616;-115.472;2022-10-04T22:37:41;100813.38;;;66.30;0.54
59407;BME280;45208;32.616;-115.472;2022-10-04T22:40:15;100812.84;;;69.11;0.00
59407;BME280;45208;32.616;-115.472;2022-10-04T22:42:43;100815.66;;;64.70;1.03
59407;BME280;45208;32.616;-115.472;2022-10-04T22:45:19;100813.69;;;62.86;1.78
59407;BME280;45208;32.616;-115.472;2022-10-04T22:47:46;100814.91;;;62.28;1.76
59407;BME280;45208;32.616;-115.472;2022-10-04T22:50:19;100829.59;;;62.16;1.79
59407;BME280;45208;32.616;-115.472;2022-10-04T22:52:49;100828.38;;;67.22;0.00
59407;BME280;45208;32.616;-115.472;2022-10-04T22:55:16;100817.41;;;68.77;0.00
59407;BME280;45208;32.616;-115.472;2022-10-04T22:57:43;100827.81;;;69.13;0.00
59407;BME280;45208;32.616;-115.472;2022-10-04T23:00:10;100817.16;;;69.26;0.00
59407;BME280;45208;32.616;-115.472;2022-10-04T23:02:36;100825.44;;;70.75;0.00
59407;BME280;45208;32.616;-115.472;2022-10-04T23:05:13;100824.25;;;71.84;0.00
59407;BME280;45208;32.616;-115.472;2022-10-04T23:07:41;100828.06;;;71.10;0.00
59407;BME280;45208;32.616;-115.472;2022-10-04T23:10:07;100817.72;;;70.44;0.00
59407;BME280;45208;32.616;-115.472;2022-10-04T23:12:34;100805.00;;;66.99;0.00
59407;BME280;45208;32.616;-115.472;2022-10-04T23:15:00;100805.06;;;64.05;1.05
59407;BME280;45208;32.616;-115.472;2022-10-04T23:17:28;100799.72;;;63.78;1.27
59407;BME280;45208;32.616;-115.472;2022-10-04T23:19:55;100799.28;;;69.06;0.00
59407;BME280;45208;32.616;-115.472;2022-10-04T23:22:24;100813.59;;;71.76;0.00
59407;BME280;45208;32.616;-115.472;2022-10-04T23:24:52;100799.97;;;67.82;0.00
59407;BME280;45208;32.616;-115.472;2022-10-04T23:27:18;100798.16;;;68.78;0.00
59407;BME280;45208;32.616;-115.472;2022-10-04T23:29:45;100789.94;;;63.87;0.55
59407;BME280;45208;32.616;-115.472;2022-10-04T23:32:13;100789.03;;;62.69;1.51
59407;BME280;45208;32.616;-115.472;2022-10-04T23:34:41;100791.63;;;64.27;0.76
59407;BME280;45208;32.616;-115.472;2022-10-04T23:37:12;100786.22;;;62.71;1.11
59407;BME280;45208;32.616;-115.472;2022-10-04T23:39:40;100784.22;;;66.10;0.00
59407;BME280;45208;32.616;-115.472;2022-10-04T23:42:11;100797.34;;;67.57;0.00
59407;BME280;45208;32.616;-115.472;2022-10-04T23:44:38;100792.00;;;67.37;0.00
59407;BME280;45208;32.616;-115.472;2022-10-04T23:47:07;100796.16;;;69.82;0.00
59407;BME280;45208;32.616;-115.472;2022-10-04T23:49:36;100798.75;;;69.91;0.00
59407;BME280;45208;32.616;-115.472;2022-10-04T23:52:02;100801.97;;;69.97;0.00
59407;BME280;45208;32.616;-115.472;2022-10-04T23:54:29;100792.25;;;68.09;0.00
59407;BME280;45208;32.616;-115.472;2022-10-04T23:56:55;100795.66;;;67.85;0.00
59407;BME280;45208;32.616;-115.472;2022-10-04T23:59:22;100796.59;;;68.41;0.00
